Argo, Illinois
Current Conditions -  °F | °C
As of 6:53 AM on Tuesday 21 Oct 2014 (Local Time) from KMDW Reporting Station
Broken Clouds Broken Clouds  
Wind Chill: 50°   Ceiling: 5000
Heat Index: 50°   Visibility: 10mi
Dew Point: 42°   Wind: 13mph
Humidity: 74%   Direction: 350°N
Pressure: 30.09"   Gusts: NA
Location:  41.7806°N, 87.8151°W
Report Text: KMDW 211153Z 35011KT 10SM FEW020 BKN050 10/06 A3009 RMK AO2 SLP189 T01000056 10122 20100 53023
Loading
Personal Weather Stations






























Interactive Weather Map
Tropical Storm Tracking
New forecast layout! Learn more

10-Day Weather Forecast

Advertisements
Track Severe Weather on mobile